Time;durP1;ratioP1;P1;durP2;ratioP2;P2;SDS_P1;SDS_P2;PMS_P1;PMS_P2;Temp;Humidity;BMP_temperature;BMP_pressure;BME280_temperature;BME280_humidity;BME280_pressure;Samples;Min_cycle;Max_cycle;Signal;HPM_P1;HPM_P2
2024/01/01 00:00:14;;;;;;;261.57;168.27;;;6.60;99.90;;;;;;4917627;29;20169;-61
2024/01/01 00:02:40;;;;;;;259.70;158.33;;;6.60;99.90;;;;;;4906614;29;20533;-61
2024/01/01 00:05:07;;;;;;;247.10;162.07;;;6.70;99.90;;;;;;4921696;29;20451;-60
2024/01/01 00:07:33;;;;;;;218.20;148.77;;;6.70;99.90;;;;;;4917005;29;20480;-61
2024/01/01 00:09:58;;;;;;;225.83;151.93;;;6.70;99.90;;;;;;4908176;29;20508;-60
2024/01/01 00:12:24;;;;;;;226.40;156.00;;;6.70;99.90;;;;;;4915001;29;20732;-61
2024/01/01 00:14:49;;;;;;;231.70;148.43;;;6.60;99.90;;;;;;4916897;29;20196;-63
2024/01/01 00:17:15;;;;;;;233.93;159.77;;;6.60;99.90;;;;;;4915149;29;20576;-60
2024/01/01 00:19:41;;;;;;;232.50;151.63;;;6.60;99.90;;;;;;4918608;29;20174;-61
2024/01/01 00:22:07;;;;;;;228.53;153.50;;;6.60;99.90;;;;;;4917001;29;20239;-60
2024/01/01 00:24:32;;;;;;;231.43;154.70;;;6.50;99.90;;;;;;4922364;29;20767;-60
2024/01/01 00:26:58;;;;;;;242.47;168.50;;;6.50;99.90;;;;;;4913013;29;20202;-60
2024/01/01 00:29:27;;;;;;;285.43;174.03;;;6.50;99.90;;;;;;4921126;29;20185;-60
2024/01/01 00:31:53;;;;;;;279.10;185.13;;;6.50;99.90;;;;;;4919280;29;20265;-59
2024/01/01 00:34:19;;;;;;;264.23;173.17;;;6.40;99.90;;;;;;4913995;29;20535;-61
2024/01/01 00:36:44;;;;;;;242.60;169.53;;;6.40;99.90;;;;;;4918100;29;20472;-60
2024/01/01 00:39:10;;;;;;;260.80;170.97;;;6.40;99.90;;;;;;4917188;29;20430;-61
2024/01/01 00:41:38;;;;;;;263.43;167.20;;;6.40;99.90;;;;;;4917129;29;20181;-61
2024/01/01 00:44:05;;;;;;;240.27;159.70;;;6.40;99.90;;;;;;4915586;29;20218;-61
2024/01/01 00:46:31;;;;;;;205.83;137.80;;;6.40;99.90;;;;;;4917034;29;20952;-61
2024/01/01 00:48:57;;;;;;;215.83;137.57;;;6.30;99.90;;;;;;4914630;29;20429;-61
2024/01/01 00:51:23;;;;;;;187.87;128.33;;;6.30;99.90;;;;;;4912809;29;20513;-61
2024/01/01 00:53:48;;;;;;;167.13;116.87;;;6.30;99.90;;;;;;4908925;29;20526;-61
2024/01/01 00:56:14;;;;;;;156.47;103.13;;;6.30;99.90;;;;;;4920944;29;20836;-61
2024/01/01 00:58:40;;;;;;;145.03;101.10;;;6.30;99.90;;;;;;4916502;29;20236;-60
2024/01/01 01:01:07;;;;;;;141.73;93.03;;;6.20;99.90;;;;;;4907540;29;20177;-61
2024/01/01 01:03:34;;;;;;;116.53;83.53;;;6.20;99.90;;;;;;4920127;29;20512;-60
2024/01/01 01:06:00;;;;;;;106.67;71.43;;;6.20;99.90;;;;;;4917014;29;20944;-61
2024/01/01 01:08:25;;;;;;;91.00;64.03;;;6.20;99.90;;;;;;4917353;29;20468;-61
2024/01/01 01:10:51;;;;;;;96.20;63.00;;;6.20;99.90;;;;;;4913798;29;20472;-61
2024/01/01 01:13:17;;;;;;;97.80;63.50;;;6.20;99.90;;;;;;4913024;29;20263;-61
2024/01/01 01:15:42;;;;;;;93.37;56.90;;;6.10;99.90;;;;;;4915489;29;20344;-61
2024/01/01 01:18:08;;;;;;;85.20;57.60;;;6.20;99.90;;;;;;4912777;29;20180;-60
2024/01/01 01:20:34;;;;;;;68.50;49.43;;;6.10;99.90;;;;;;4911915;29;20186;-61
2024/01/01 01:22:59;;;;;;;75.67;48.33;;;6.10;99.90;;;;;;4911786;29;20202;-61
2024/01/01 01:25:25;;;;;;;58.60;42.30;;;6.10;99.90;;;;;;4909882;29;20289;-60
2024/01/01 01:27:51;;;;;;;56.13;39.00;;;6.10;99.90;;;;;;4919618;29;20526;-60
2024/01/01 01:30:16;;;;;;;48.53;36.53;;;6.10;99.90;;;;;;4922210;29;20180;-61
2024/01/01 01:32:42;;;;;;;53.20;35.23;;;6.10;99.90;;;;;;4918563;29;20751;-60
2024/01/01 01:35:09;;;;;;;47.40;33.27;;;6.10;99.90;;;;;;4918159;29;20429;-61
2024/01/01 01:37:35;;;;;;;50.93;31.43;;;6.10;99.90;;;;;;4917488;29;20212;-60
2024/01/01 01:40:00;;;;;;;47.90;30.10;;;6.10;99.90;;;;;;4910034;29;20431;-60
2024/01/01 01:42:26;;;;;;;38.27;28.60;;;6.10;99.90;;;;;;4909841;29;20213;-61
2024/01/01 01:44:52;;;;;;;45.57;28.60;;;6.00;99.90;;;;;;4919599;29;20287;-61
2024/01/01 01:47:17;;;;;;;46.73;31.03;;;6.00;99.90;;;;;;4910138;29;20595;-61
2024/01/01 01:49:43;;;;;;;41.27;28.50;;;6.00;99.90;;;;;;4905031;29;20189;-61
2024/01/01 01:52:10;;;;;;;37.87;27.07;;;6.00;99.90;;;;;;4918547;29;20433;-61
2024/01/01 01:54:36;;;;;;;42.73;30.37;;;6.00;99.90;;;;;;4923713;29;20419;-61
2024/01/01 01:57:03;;;;;;;40.17;25.07;;;6.00;99.90;;;;;;4916957;29;20466;-61
2024/01/01 01:59:29;;;;;;;36.77;26.50;;;6.00;99.90;;;;;;4913148;29;20472;-61
2024/01/01 02:01:57;;;;;;;36.40;25.23;;;6.00;99.90;;;;;;4912079;29;20494;-61
2024/01/01 02:04:24;;;;;;;33.63;24.20;;;6.00;99.90;;;;;;4914905;29;21060;-62
2024/01/01 02:06:49;;;;;;;33.00;25.47;;;6.00;99.90;;;;;;4921482;29;20428;-62
2024/01/01 02:09:15;;;;;;;38.73;26.30;;;6.00;99.90;;;;;;4910283;29;20662;-62
2024/01/01 02:11:40;;;;;;;35.80;25.60;;;6.00;99.90;;;;;;4924235;29;20690;-61
2024/01/01 02:14:14;;;;;;;35.30;24.63;;;6.00;99.90;;;;;;4920954;29;20295;-61
2024/01/01 02:16:40;;;;;;;35.90;24.90;;;6.00;99.90;;;;;;4912453;29;20208;-61
2024/01/01 02:19:19;;;;;;;41.63;28.23;;;6.00;99.90;;;;;;4907607;29;20943;-61
2024/01/01 02:21:45;;;;;;;38.67;26.30;;;5.90;99.90;;;;;;4922187;29;20163;-61
2024/01/01 02:24:10;;;;;;;32.63;23.00;;;5.90;99.90;;;;;;4915810;29;20442;-61
2024/01/01 02:26:36;;;;;;;36.60;25.30;;;5.90;99.90;;;;;;4916257;29;20936;-61
2024/01/01 02:29:02;;;;;;;41.50;28.67;;;5.90;99.90;;;;;;4915591;29;20183;-61
2024/01/01 02:31:27;;;;;;;42.00;29.07;;;5.80;99.90;;;;;;4912045;29;20213;-61
2024/01/01 02:33:53;;;;;;;47.00;29.77;;;5.80;99.90;;;;;;4919359;29;20679;-61
2024/01/01 02:36:18;;;;;;;36.43;25.77;;;5.80;99.90;;;;;;4918922;29;20561;-61
2024/01/01 02:38:44;;;;;;;42.90;28.90;;;5.70;99.90;;;;;;4914878;29;20177;-61
2024/01/01 02:41:10;;;;;;;37.43;27.17;;;5.70;99.90;;;;;;4917264;29;20176;-61
2024/01/01 02:43:35;;;;;;;43.10;26.40;;;5.70;99.90;;;;;;4922675;29;20239;-61
2024/01/01 02:46:01;;;;;;;32.97;24.00;;;5.70;99.90;;;;;;4910823;29;20185;-61
2024/01/01 02:48:27;;;;;;;39.03;26.00;;;5.70;99.90;;;;;;4913527;29;20184;-61
2024/01/01 02:50:53;;;;;;;34.50;24.17;;;5.60;99.90;;;;;;4922399;29;20262;-61
2024/01/01 02:53:18;;;;;;;33.53;23.60;;;5.70;99.90;;;;;;4912902;29;20231;-61
2024/01/01 02:55:44;;;;;;;34.87;24.77;;;5.70;99.90;;;;;;4907149;29;20464;-61
2024/01/01 02:58:10;;;;;;;38.30;25.00;;;5.70;99.90;;;;;;4922093;29;20552;-61
2024/01/01 03:00:36;;;;;;;43.60;26.20;;;5.70;99.90;;;;;;4920983;29;20184;-62
2024/01/01 03:03:03;;;;;;;32.70;23.63;;;5.70;99.90;;;;;;4915424;29;20192;-61
2024/01/01 03:05:28;;;;;;;25.20;18.43;;;5.70;99.90;;;;;;4906926;29;20188;-61
2024/01/01 03:07:54;;;;;;;29.73;19.83;;;5.70;99.90;;;;;;4912617;29;20927;-61
2024/01/01 03:10:20;;;;;;;24.40;17.07;;;5.60;99.90;;;;;;4918393;29;20181;-61
2024/01/01 03:12:46;;;;;;;24.70;16.63;;;5.70;99.90;;;;;;4925284;29;20247;-61
2024/01/01 03:15:12;;;;;;;23.00;15.87;;;5.60;99.90;;;;;;4917437;29;20559;-61
2024/01/01 03:17:37;;;;;;;27.17;18.67;;;5.70;99.90;;;;;;4901129;29;20464;-61
2024/01/01 03:20:06;;;;;;;23.30;15.33;;;5.60;99.90;;;;;;4915520;29;20167;-61
2024/01/01 03:22:32;;;;;;;24.10;16.10;;;5.60;99.90;;;;;;4916626;29;20684;-61
2024/01/01 03:24:58;;;;;;;25.10;16.40;;;5.50;99.90;;;;;;4917593;29;20522;-61
2024/01/01 03:27:23;;;;;;;23.73;17.30;;;5.60;99.90;;;;;;4912718;29;20184;-61
2024/01/01 03:29:49;;;;;;;21.53;15.40;;;5.50;99.90;;;;;;4913368;29;20178;-61
2024/01/01 03:32:14;;;;;;;26.30;16.70;;;5.40;99.90;;;;;;4917894;29;20214;-60
2024/01/01 03:34:42;;;;;;;28.43;18.20;;;5.40;99.90;;;;;;4917865;29;20254;-61
2024/01/01 03:37:07;;;;;;;22.33;16.40;;;5.40;99.90;;;;;;4918150;29;20566;-61
2024/01/01 03:39:33;;;;;;;27.17;15.63;;;5.40;99.90;;;;;;4925037;29;20420;-61
2024/01/01 03:41:58;;;;;;;20.07;15.10;;;5.50;99.90;;;;;;4916312;29;20178;-63
2024/01/01 03:44:24;;;;;;;26.93;17.20;;;5.50;99.90;;;;;;4916567;29;20230;-61
2024/01/01 03:46:50;;;;;;;30.10;18.30;;;5.50;99.90;;;;;;4908778;29;20240;-61
2024/01/01 03:49:15;;;;;;;27.53;17.60;;;5.50;99.90;;;;;;4917296;29;20647;-61
2024/01/01 03:51:41;;;;;;;22.83;17.10;;;5.50;99.90;;;;;;4912937;29;20182;-61
2024/01/01 03:54:06;;;;;;;21.47;15.93;;;5.60;99.90;;;;;;4917677;29;20189;-59
2024/01/01 03:56:32;;;;;;;21.20;15.10;;;5.60;99.90;;;;;;4916735;29;20223;-61
2024/01/01 03:58:57;;;;;;;19.13;14.00;;;5.60;99.90;;;;;;4922466;29;20191;-61
2024/01/01 04:01:24;;;;;;;21.27;13.10;;;5.60;99.90;;;;;;4917483;29;20177;-61
2024/01/01 04:03:50;;;;;;;19.57;12.20;;;5.60;99.90;;;;;;4915703;29;20203;-61
2024/01/01 04:06:15;;;;;;;19.03;13.07;;;5.60;99.90;;;;;;4921646;29;20790;-61
2024/01/01 04:08:41;;;;;;;22.27;12.90;;;5.60;99.90;;;;;;4909237;29;20177;-61
2024/01/01 04:11:06;;;;;;;21.57;13.27;;;5.50;99.90;;;;;;4912662;29;20264;-61
2024/01/01 04:13:32;;;;;;;19.97;13.67;;;5.50;99.90;;;;;;4917354;29;20272;-61
2024/01/01 04:15:58;;;;;;;19.23;14.20;;;5.40;99.90;;;;;;4909554;29;20211;-61
2024/01/01 04:18:23;;;;;;;21.70;13.37;;;5.40;99.90;;;;;;4922004;29;20405;-60
2024/01/01 04:20:49;;;;;;;23.00;16.57;;;5.30;99.90;;;;;;4919567;29;20172;-62
2024/01/01 04:23:16;;;;;;;21.47;14.27;;;5.30;99.90;;;;;;4919412;29;20212;-62
2024/01/01 04:25:41;;;;;;;26.73;14.97;;;5.30;99.90;;;;;;4924981;29;20435;-61
2024/01/01 04:28:07;;;;;;;24.57;15.00;;;5.30;99.90;;;;;;4916763;29;20416;-61
2024/01/01 04:30:32;;;;;;;22.57;14.47;;;5.40;99.90;;;;;;4923278;29;20176;-61
2024/01/01 04:32:58;;;;;;;25.63;13.70;;;5.40;99.90;;;;;;4908654;29;20200;-61
2024/01/01 04:35:24;;;;;;;20.10;14.67;;;5.50;99.90;;;;;;4909082;29;20711;-61
2024/01/01 04:37:50;;;;;;;21.57;12.90;;;5.50;99.90;;;;;;4922357;29;20622;-61
2024/01/01 04:40:15;;;;;;;22.90;15.50;;;5.60;99.90;;;;;;4918080;29;20459;-60
2024/01/01 04:42:41;;;;;;;23.30;13.50;;;5.60;99.90;;;;;;4917994;29;20714;-61
2024/01/01 04:45:07;;;;;;;23.80;14.57;;;5.70;99.90;;;;;;4917857;29;20176;-59
2024/01/01 04:47:33;;;;;;;21.90;14.57;;;5.70;99.90;;;;;;4922567;29;20179;-61
2024/01/01 04:49:58;;;;;;;23.40;15.00;;;5.70;99.90;;;;;;4911330;29;20420;-61
2024/01/01 04:52:24;;;;;;;29.70;14.50;;;5.80;99.90;;;;;;4911106;29;20574;-61
2024/01/01 04:54:54;;;;;;;22.30;15.77;;;5.80;99.90;;;;;;4909716;29;20183;-61
2024/01/01 04:57:20;;;;;;;22.23;14.47;;;5.80;99.90;;;;;;4914225;29;20217;-61
2024/01/01 04:59:45;;;;;;;16.57;14.07;;;5.90;99.90;;;;;;4910139;29;20475;-61
2024/01/01 05:02:11;;;;;;;20.57;14.57;;;5.90;99.90;;;;;;4908028;29;20186;-61
2024/01/01 05:04:37;;;;;;;21.60;14.33;;;6.00;99.90;;;;;;4916361;29;20176;-61
2024/01/01 05:07:03;;;;;;;21.80;13.47;;;5.90;99.90;;;;;;4916778;29;20180;-61
2024/01/01 05:09:29;;;;;;;27.20;14.33;;;6.00;99.90;;;;;;4921750;29;20232;-61
2024/01/01 05:11:55;;;;;;;24.00;15.47;;;6.00;99.90;;;;;;4917579;29;20425;-61
2024/01/01 05:14:21;;;;;;;22.47;15.07;;;6.00;99.90;;;;;;4921418;29;20216;-61
2024/01/01 05:16:47;;;;;;;21.53;14.77;;;6.00;99.90;;;;;;4916050;29;20485;-61
2024/01/01 05:19:12;;;;;;;23.90;16.40;;;6.00;99.90;;;;;;4917271;29;20266;-61
2024/01/01 05:21:38;;;;;;;20.90;14.33;;;6.00;99.90;;;;;;4917670;29;20209;-61
2024/01/01 05:24:04;;;;;;;21.07;14.00;;;6.00;99.90;;;;;;4910910;29;20226;-61
2024/01/01 05:26:29;;;;;;;19.80;14.03;;;6.00;99.90;;;;;;4916243;29;20184;-61
2024/01/01 05:28:56;;;;;;;23.53;13.63;;;6.00;99.90;;;;;;4915813;29;20194;-61
2024/01/01 05:31:22;;;;;;;20.90;14.37;;;6.10;99.90;;;;;;4922000;29;20195;-61
2024/01/01 05:33:48;;;;;;;21.80;13.57;;;6.20;99.90;;;;;;4911536;29;20477;-61
2024/01/01 05:36:14;;;;;;;19.60;13.90;;;6.10;99.90;;;;;;4911661;29;20479;-61
2024/01/01 05:38:40;;;;;;;19.83;13.00;;;6.20;99.90;;;;;;4918482;29;20520;-61
2024/01/01 05:41:06;;;;;;;16.40;12.23;;;6.20;99.90;;;;;;4919935;29;20177;-61
2024/01/01 05:43:33;;;;;;;24.13;12.80;;;6.20;99.90;;;;;;4914878;29;20815;-61
2024/01/01 05:45:59;;;;;;;17.13;12.70;;;6.20;99.90;;;;;;4919997;29;20189;-61
2024/01/01 05:48:25;;;;;;;14.87;10.73;;;6.20;99.90;;;;;;4912770;29;20879;-61
2024/01/01 05:50:51;;;;;;;15.13;11.07;;;6.20;99.90;;;;;;4914716;29;20557;-61
2024/01/01 05:53:16;;;;;;;15.47;10.90;;;6.20;99.90;;;;;;4921162;29;20211;-63
2024/01/01 05:55:42;;;;;;;16.97;10.77;;;6.20;99.90;;;;;;4915110;29;20471;-60
2024/01/01 05:58:08;;;;;;;18.10;10.87;;;6.20;99.90;;;;;;4919217;29;20196;-61
2024/01/01 06:00:36;;;;;;;20.60;11.50;;;6.20;99.90;;;;;;4922317;29;20534;-60
2024/01/01 06:03:04;;;;;;;17.80;11.50;;;6.20;99.90;;;;;;4913147;29;20211;-61
2024/01/01 06:05:33;;;;;;;15.63;10.23;;;6.20;99.90;;;;;;4916879;29;20500;-61
2024/01/01 06:08:00;;;;;;;15.70;10.43;;;6.30;99.90;;;;;;4911241;29;20423;-60
2024/01/01 06:10:26;;;;;;;13.97;9.90;;;6.30;99.90;;;;;;4905630;29;20504;-61
2024/01/01 06:12:52;;;;;;;16.87;10.70;;;6.30;99.90;;;;;;4915037;29;20933;-61
2024/01/01 06:15:17;;;;;;;14.93;11.13;;;6.20;99.90;;;;;;4911075;29;20507;-61
2024/01/01 06:17:43;;;;;;;12.57;11.20;;;6.30;99.90;;;;;;4915202;29;20241;-61
2024/01/01 06:20:09;;;;;;;15.43;10.30;;;6.20;99.90;;;;;;4915815;29;20178;-61
2024/01/01 06:22:35;;;;;;;15.83;10.40;;;6.20;99.90;;;;;;4916097;29;20564;-61
2024/01/01 06:25:00;;;;;;;17.33;10.67;;;6.20;99.90;;;;;;4910777;29;20423;-60
2024/01/01 06:27:26;;;;;;;13.47;9.50;;;6.20;99.90;;;;;;4906720;29;20194;-60
2024/01/01 06:29:51;;;;;;;20.83;10.03;;;6.20;99.90;;;;;;4914748;29;20199;-60
2024/01/01 06:32:17;;;;;;;11.40;9.87;;;6.10;99.90;;;;;;4914327;29;20251;-61
2024/01/01 06:34:44;;;;;;;15.73;8.90;;;6.10;99.90;;;;;;4911461;29;20707;-61
2024/01/01 06:37:10;;;;;;;14.73;9.50;;;6.10;99.90;;;;;;4915413;29;20200;-61
2024/01/01 06:39:35;;;;;;;12.90;8.47;;;6.20;99.90;;;;;;4917462;29;20492;-59
2024/01/01 06:42:01;;;;;;;11.30;8.60;;;6.20;99.90;;;;;;4922656;29;20281;-61
2024/01/01 06:44:27;;;;;;;15.17;9.67;;;6.30;99.90;;;;;;4916240;29;20205;-59
2024/01/01 06:46:53;;;;;;;11.37;8.07;;;6.30;99.90;;;;;;4914772;29;20196;-61
2024/01/01 06:49:19;;;;;;;14.83;8.57;;;6.30;99.90;;;;;;4909812;29;20186;-60
2024/01/01 06:51:49;;;;;;;15.60;10.87;;;6.30;99.90;;;;;;4916354;29;20275;-61
2024/01/01 06:54:14;;;;;;;12.77;8.80;;;6.40;99.90;;;;;;4908346;29;20547;-60
2024/01/01 06:56:41;;;;;;;11.30;6.93;;;6.40;99.90;;;;;;4914084;29;20622;-60
2024/01/01 06:59:07;;;;;;;12.30;8.00;;;6.40;99.90;;;;;;4914273;29;20204;-61
2024/01/01 07:01:32;;;;;;;10.53;7.93;;;6.40;99.90;;;;;;4914842;29;20470;-61
2024/01/01 07:03:58;;;;;;;11.30;6.93;;;6.40;99.90;;;;;;4906774;29;20283;-62
2024/01/01 07:06:24;;;;;;;8.57;6.90;;;6.50;99.90;;;;;;4916101;29;20254;-61
2024/01/01 07:08:49;;;;;;;11.53;7.80;;;6.50;99.90;;;;;;4911059;29;20247;-61
2024/01/01 07:11:15;;;;;;;13.10;7.70;;;6.40;99.90;;;;;;4907165;29;20318;-60
2024/01/01 07:13:40;;;;;;;20.57;7.30;;;6.40;99.90;;;;;;4914481;29;20224;-62
2024/01/01 07:16:07;;;;;;;10.27;6.57;;;6.40;99.90;;;;;;4912107;29;20208;-60
2024/01/01 07:18:33;;;;;;;10.53;7.10;;;6.30;99.90;;;;;;4909948;29;20190;-61
2024/01/01 07:21:00;;;;;;;8.80;6.70;;;6.30;99.90;;;;;;4917185;29;20413;-60
2024/01/01 07:23:26;;;;;;;13.80;7.07;;;6.40;99.90;;;;;;4915717;29;20208;-60
2024/01/01 07:25:51;;;;;;;13.63;6.77;;;6.40;99.90;;;;;;4917847;29;20476;-62
2024/01/01 07:28:17;;;;;;;9.87;7.43;;;6.40;99.90;;;;;;4909271;29;20185;-62
2024/01/01 07:30:43;;;;;;;10.27;6.57;;;6.40;99.90;;;;;;4925119;29;20579;-63
2024/01/01 07:33:08;;;;;;;10.80;7.47;;;6.40;99.90;;;;;;4916648;29;20231;-61
2024/01/01 07:35:34;;;;;;;9.20;6.47;;;6.40;99.90;;;;;;4912040;29;20185;-61
2024/01/01 07:38:00;;;;;;;11.07;6.67;;;6.40;99.90;;;;;;4914376;29;20175;-61
2024/01/01 07:40:26;;;;;;;8.80;5.93;;;6.40;99.90;;;;;;4908553;29;20591;-61
2024/01/01 07:42:51;;;;;;;8.77;5.63;;;6.40;99.90;;;;;;4916274;29;20459;-61
2024/01/01 07:45:17;;;;;;;7.73;6.00;;;6.40;99.90;;;;;;4909932;29;20578;-61
2024/01/01 07:47:43;;;;;;;11.37;6.07;;;6.50;99.90;;;;;;4916207;29;20647;-61
2024/01/01 07:50:09;;;;;;;10.30;6.63;;;6.60;99.90;;;;;;4913301;29;20651;-60
2024/01/01 07:52:34;;;;;;;7.70;6.20;;;6.70;99.90;;;;;;4910421;29;20210;-60
2024/01/01 07:55:00;;;;;;;5.90;5.07;;;6.70;99.90;;;;;;4913855;29;20430;-59
2024/01/01 07:57:26;;;;;;;11.73;5.73;;;6.80;99.90;;;;;;4910956;29;20213;-61
2024/01/01 07:59:56;;;;;;;7.40;5.77;;;6.80;99.90;;;;;;4908866;29;20201;-61
2024/01/01 08:02:22;;;;;;;7.77;5.30;;;6.90;99.90;;;;;;4911869;29;20192;-61
2024/01/01 08:04:47;;;;;;;9.10;5.20;;;6.90;99.90;;;;;;4910055;29;20444;-60
2024/01/01 08:07:13;;;;;;;6.63;5.40;;;6.90;99.90;;;;;;4911774;29;20208;-61
2024/01/01 08:09:38;;;;;;;5.80;4.60;;;6.90;99.90;;;;;;4925937;23;20674;-63
2024/01/01 08:12:05;;;;;;;10.77;6.00;;;6.90;99.90;;;;;;4918372;29;20275;-65
2024/01/01 08:14:30;;;;;;;8.03;5.27;;;7.00;99.90;;;;;;4922942;29;20684;-62
2024/01/01 08:16:56;;;;;;;9.40;5.13;;;7.00;99.90;;;;;;4930493;29;20555;-65
2024/01/01 08:19:21;;;;;;;9.50;4.97;;;7.00;99.90;;;;;;4918892;29;20185;-65
2024/01/01 08:21:47;;;;;;;7.03;5.30;;;7.00;99.90;;;;;;4928689;29;20223;-67
2024/01/01 08:24:13;;;;;;;11.10;5.03;;;7.10;99.90;;;;;;4926328;29;20185;-66
2024/01/01 08:26:38;;;;;;;8.83;4.30;;;7.10;99.90;;;;;;4924775;29;20202;-68
2024/01/01 08:29:04;;;;;;;9.43;5.10;;;7.20;99.90;;;;;;4922907;29;20422;-66
2024/01/01 08:31:30;;;;;;;8.30;4.07;;;7.20;99.90;;;;;;4913681;29;20603;-65
2024/01/01 08:33:55;;;;;;;5.03;4.20;;;7.30;99.90;;;;;;4928937;29;20189;-65
2024/01/01 08:36:21;;;;;;;7.20;4.50;;;7.40;99.90;;;;;;4918350;29;20208;-69
2024/01/01 08:38:47;;;;;;;9.37;4.57;;;7.40;99.90;;;;;;4932868;29;20546;-64
2024/01/01 08:41:13;;;;;;;5.90;4.30;;;7.40;99.90;;;;;;4909260;29;20450;-62
2024/01/01 08:43:38;;;;;;;7.43;4.03;;;7.50;99.90;;;;;;4917974;29;20485;-65
2024/01/01 08:46:05;;;;;;;4.47;3.90;;;7.50;99.90;;;;;;4925666;29;20251;-65
2024/01/01 08:48:30;;;;;;;12.63;3.37;;;7.50;99.90;;;;;;4918201;29;20709;-65
2024/01/01 08:50:56;;;;;;;6.57;4.50;;;7.50;99.90;;;;;;4930885;29;20632;-64
2024/01/01 08:53:22;;;;;;;6.90;4.03;;;7.40;99.90;;;;;;4919754;29;20238;-64
2024/01/01 08:55:47;;;;;;;7.20;4.33;;;7.40;99.90;;;;;;4934311;29;20741;-64
2024/01/01 08:58:13;;;;;;;6.30;5.07;;;7.50;99.90;;;;;;4923609;29;20199;-64
2024/01/01 09:00:39;;;;;;;12.60;5.40;;;7.60;99.90;;;;;;4916759;29;20358;-64
2024/01/01 09:03:05;;;;;;;7.23;4.30;;;7.60;99.90;;;;;;4925759;29;20192;-65
2024/01/01 09:05:30;;;;;;;5.47;3.63;;;7.50;99.90;;;;;;4915674;29;20620;-64
2024/01/01 09:07:56;;;;;;;7.93;5.13;;;7.60;99.90;;;;;;4924251;29;20564;-63
2024/01/01 09:10:22;;;;;;;7.70;5.13;;;7.60;99.90;;;;;;4916527;29;20684;-64
2024/01/01 09:12:48;;;;;;;5.67;3.40;;;7.90;99.90;;;;;;4930404;29;20174;-64
2024/01/01 09:15:16;;;;;;;6.00;4.50;;;8.00;99.90;;;;;;4926380;29;20194;-65
2024/01/01 09:17:43;;;;;;;6.50;4.40;;;7.90;99.90;;;;;;4920134;29;20679;-65
2024/01/01 09:20:10;;;;;;;5.93;4.27;;;8.20;99.90;;;;;;4924321;29;20810;-65
2024/01/01 09:22:36;;;;;;;8.50;4.90;;;8.10;99.90;;;;;;4927529;29;21018;-63
2024/01/01 09:25:01;;;;;;;5.70;3.40;;;8.10;99.90;;;;;;4932378;29;20504;-65
2024/01/01 09:27:27;;;;;;;6.03;4.00;;;8.10;99.90;;;;;;4919117;29;20181;-64
2024/01/01 09:29:53;;;;;;;6.20;4.27;;;8.00;99.90;;;;;;4934594;29;20202;-64
2024/01/01 09:32:19;;;;;;;6.73;4.37;;;7.90;99.90;;;;;;4920672;29;20249;-64
2024/01/01 09:34:44;;;;;;;6.43;4.83;;;7.90;99.90;;;;;;4918049;29;20831;-65
2024/01/01 09:37:10;;;;;;;7.37;5.13;;;7.90;99.90;;;;;;4929760;29;20613;-65
2024/01/01 09:39:35;;;;;;;6.40;4.27;;;7.90;99.90;;;;;;4927093;29;21380;-65
2024/01/01 09:42:03;;;;;;;6.73;4.47;;;8.10;99.90;;;;;;4924867;29;20200;-65
2024/01/01 09:44:29;;;;;;;6.17;3.27;;;8.00;99.90;;;;;;4927275;29;20217;-65
2024/01/01 09:46:55;;;;;;;5.47;3.93;;;8.10;99.90;;;;;;4934327;29;20835;-65
2024/01/01 09:49:24;;;;;;;4.87;4.20;;;8.10;99.90;;;;;;4918788;29;20567;-66
2024/01/01 09:51:51;;;;;;;5.80;4.00;;;8.00;99.90;;;;;;4920493;29;20483;-65
2024/01/01 09:54:17;;;;;;;6.07;3.80;;;7.90;99.90;;;;;;4927982;29;20423;-65
2024/01/01 09:56:42;;;;;;;7.23;4.13;;;7.90;99.90;;;;;;4908797;29;20533;-64
2024/01/01 09:59:10;;;;;;;6.70;3.30;;;7.90;99.90;;;;;;4916773;29;20204;-65
2024/01/01 10:01:38;;;;;;;7.60;4.10;;;7.80;99.90;;;;;;4920266;29;20247;-65
2024/01/01 10:04:07;;;;;;;6.50;3.60;;;7.90;99.90;;;;;;4914159;29;20419;-65
2024/01/01 10:06:36;;;;;;;9.00;4.30;;;7.90;99.90;;;;;;4927913;29;20468;-65
2024/01/01 10:09:09;;;;;;;7.20;4.93;;;7.80;99.90;;;;;;4926948;29;20429;-66
2024/01/01 10:11:40;;;;;;;7.57;4.07;;;7.80;99.90;;;;;;4921761;29;20456;-66
2024/01/01 10:14:07;;;;;;;5.90;3.17;;;7.70;99.90;;;;;;4921998;29;20787;-66
2024/01/01 10:16:33;;;;;;;7.37;3.80;;;7.70;99.90;;;;;;4929297;29;20978;-66
2024/01/01 10:19:00;;;;;;;7.10;3.57;;;7.70;99.90;;;;;;4919806;29;20426;-66
2024/01/01 10:21:31;;;;;;;6.47;3.60;;;7.70;99.90;;;;;;4923595;29;20514;-66
2024/01/01 10:23:58;;;;;;;6.30;4.30;;;7.70;99.90;;;;;;4903682;29;20432;-64
2024/01/01 10:26:24;;;;;;;6.83;4.43;;;7.90;99.90;;;;;;4928165;29;20422;-66
2024/01/01 10:28:50;;;;;;;6.30;3.63;;;8.00;99.90;;;;;;4928026;29;20786;-66
2024/01/01 10:31:16;;;;;;;7.37;3.70;;;8.00;99.90;;;;;;4922574;29;20471;-65
2024/01/01 10:33:44;;;;;;;7.27;3.60;;;8.00;99.90;;;;;;4919499;29;20238;-65
2024/01/01 10:36:12;;;;;;;3.83;3.53;;;8.10;99.90;;;;;;4927753;29;20857;-64
2024/01/01 10:38:39;;;;;;;4.60;3.60;;;8.10;99.90;;;;;;4927687;29;20426;-63
2024/01/01 10:41:05;;;;;;;5.60;3.37;;;8.00;99.90;;;;;;4927699;29;20443;-64
2024/01/01 10:43:32;;;;;;;5.80;3.93;;;7.90;99.90;;;;;;4929973;29;20423;-64
2024/01/01 10:46:03;;;;;;;4.53;3.50;;;8.00;99.90;;;;;;4927246;29;20436;-65
2024/01/01 10:48:32;;;;;;;4.00;3.60;;;7.90;99.90;;;;;;4923463;29;20426;-65
2024/01/01 10:51:05;;;;;;;9.30;4.27;;;8.10;99.90;;;;;;4923878;29;20494;-65
2024/01/01 10:53:44;;;;;;;6.17;3.80;;;8.20;99.90;;;;;;4932132;29;20426;-65
2024/01/01 10:56:27;;;;;;;3.93;3.13;;;8.20;99.90;;;;;;4927697;29;20473;-64
2024/01/01 10:58:55;;;;;;;4.10;3.63;;;8.00;99.90;;;;;;4922734;29;20921;-65
2024/01/01 11:01:22;;;;;;;6.23;3.27;;;8.00;99.90;;;;;;4930981;29;20447;-62
2024/01/01 11:03:49;;;;;;;5.00;3.30;;;8.00;99.90;;;;;;4930164;29;20426;-65
2024/01/01 11:06:31;;;;;;;4.80;4.00;;;8.00;99.90;;;;;;4930389;29;20432;-65
2024/01/01 11:09:17;;;;;;;8.80;3.80;;;8.00;99.90;;;;;;4916495;29;20435;-66
2024/01/01 11:11:49;;;;;;;6.90;3.87;;;8.10;99.90;;;;;;4931450;29;20472;-65
2024/01/01 11:14:34;;;;;;;6.87;3.87;;;8.20;99.90;;;;;;4923291;29;20432;-64
2024/01/01 11:17:06;;;;;;;10.40;4.80;;;8.20;99.90;;;;;;4931119;29;20460;-65
2024/01/01 11:19:43;;;;;;;10.17;4.83;;;8.10;99.90;;;;;;4927601;29;21017;-64
2024/01/01 11:22:20;;;;;;;6.67;4.83;;;8.00;99.90;;;;;;4926507;29;20426;-65
2024/01/01 11:24:49;;;;;;;6.60;3.80;;;8.00;99.90;;;;;;4925730;29;20425;-66
2024/01/01 11:27:25;;;;;;;7.37;4.13;;;8.10;99.90;;;;;;4927523;29;20570;-65
2024/01/01 11:29:50;;;;;;;6.40;3.10;;;8.30;99.90;;;;;;4919108;29;20482;-64
2024/01/01 11:32:19;;;;;;;4.70;3.40;;;8.20;99.90;;;;;;4921304;29;20518;-66
2024/01/01 11:35:07;;;;;;;6.10;3.40;;;8.10;99.90;;;;;;4930050;29;20195;-65
2024/01/01 11:37:37;;;;;;;4.83;3.70;;;8.00;99.90;;;;;;4927997;29;20557;-65
2024/01/01 11:40:04;;;;;;;8.87;4.83;;;8.10;99.90;;;;;;4929314;29;20446;-64
2024/01/01 11:42:30;;;;;;;7.17;3.87;;;8.10;99.90;;;;;;4930104;29;20438;-65
2024/01/01 11:45:15;;;;;;;6.57;3.80;;;8.10;99.90;;;;;;4930101;29;20431;-66
2024/01/01 11:47:42;;;;;;;5.80;4.40;;;8.10;99.90;;;;;;4926714;29;20234;-65
2024/01/01 11:50:08;;;;;;;9.80;4.77;;;8.10;99.90;;;;;;4916276;29;20454;-66
2024/01/01 11:52:34;;;;;;;7.57;3.70;;;8.10;99.90;;;;;;4929389;29;20506;-66
2024/01/01 11:55:00;;;;;;;6.90;3.73;;;8.20;99.90;;;;;;4924249;29;20461;-65
2024/01/01 11:57:25;;;;;;;6.13;4.60;;;8.30;99.90;;;;;;4920002;29;20206;-65
2024/01/01 11:59:51;;;;;;;10.20;4.40;;;8.20;99.90;;;;;;4918952;29;20194;-64
2024/01/01 12:02:18;;;;;;;4.77;3.93;;;8.20;99.90;;;;;;4907628;29;20267;-64
2024/01/01 12:04:50;;;;;;;6.37;3.80;;;8.30;99.90;;;;;;4916333;29;21005;-65
2024/01/01 12:07:29;;;;;;;9.00;3.97;;;8.30;99.90;;;;;;4911553;29;20428;-66
2024/01/01 12:10:09;;;;;;;5.77;3.90;;;8.30;99.90;;;;;;4917243;29;20481;-66
2024/01/01 12:12:36;;;;;;;6.57;4.40;;;8.40;99.90;;;;;;4928471;29;20419;-64
2024/01/01 12:15:12;;;;;;;7.70;4.53;;;8.30;99.90;;;;;;4926239;29;20438;-65
2024/01/01 12:17:39;;;;;;;5.70;3.63;;;8.40;99.90;;;;;;4917638;29;20463;-65
2024/01/01 12:20:05;;;;;;;9.63;3.67;;;8.30;99.90;;;;;;4918532;29;20527;-65
2024/01/01 12:22:31;;;;;;;5.00;3.50;;;8.40;99.90;;;;;;4924626;29;20568;-66
2024/01/01 12:24:57;;;;;;;4.50;3.93;;;8.40;99.90;;;;;;4926348;29;21164;-65
2024/01/01 12:27:23;;;;;;;6.13;3.77;;;8.50;99.90;;;;;;4916973;29;20178;-66
2024/01/01 12:29:50;;;;;;;6.63;3.23;;;8.60;99.90;;;;;;4925526;29;20427;-65
2024/01/01 12:32:16;;;;;;;10.50;5.20;;;8.60;99.90;;;;;;4914217;29;20543;-65
2024/01/01 12:34:41;;;;;;;4.47;3.17;;;8.60;99.90;;;;;;4909307;29;20491;-66
2024/01/01 12:37:08;;;;;;;5.10;3.83;;;8.70;99.90;;;;;;4914241;29;20204;-66
2024/01/01 12:39:33;;;;;;;6.20;4.13;;;8.80;99.90;;;;;;4910456;29;20690;-65